Time;durP1;ratioP1;P1;durP2;ratioP2;P2;SDS_P1;SDS_P2;PMS_P1;PMS_P2;Temp;Humidity;BMP_temperature;BMP_pressure;BME280_temperature;BME280_humidity;BME280_pressure;Samples;Min_cycle;Max_cycle;Signal;HPM_P1;HPM_P2
2024/03/28 00:02:03;;;;;;;11.75;8.88;;;10.60;89.80;;;;;;5036780;28;20639;-60
2024/03/28 00:04:28;;;;;;;17.88;8.77;;;10.70;90.40;;;;;;5032282;28;20139;-61
2024/03/28 00:06:54;;;;;;;11.65;7.80;;;10.60;90.10;;;;;;5031760;28;20591;-61
2024/03/28 00:09:20;;;;;;;12.95;8.55;;;10.50;90.30;;;;;;5032177;28;20053;-60
2024/03/28 00:11:46;;;;;;;14.60;9.30;;;10.60;91.00;;;;;;5036829;28;20022;-61
2024/03/28 00:14:13;;;;;;;12.57;8.68;;;10.50;91.10;;;;;;5039357;28;20017;-61
2024/03/28 00:16:38;;;;;;;19.58;9.25;;;10.50;91.00;;;;;;5039484;28;20033;-61
2024/03/28 00:19:04;;;;;;;17.35;10.25;;;10.50;91.10;;;;;;5039125;28;20108;-61
2024/03/28 00:21:30;;;;;;;16.33;10.88;;;10.40;91.80;;;;;;5039307;28;20028;-61
2024/03/28 00:23:55;;;;;;;14.55;9.57;;;10.40;91.70;;;;;;5038648;28;20758;-60
2024/03/28 00:26:21;;;;;;;15.25;9.23;;;10.40;91.60;;;;;;5037336;28;20037;-61
2024/03/28 00:28:46;;;;;;;14.27;9.48;;;10.40;92.30;;;;;;5035771;28;20053;-61
2024/03/28 00:31:12;;;;;;;14.93;10.32;;;10.40;92.40;;;;;;5038253;28;20029;-61
2024/03/28 00:33:37;;;;;;;15.15;9.95;;;10.40;92.50;;;;;;5030801;28;20034;-60
2024/03/28 00:36:03;;;;;;;18.25;11.30;;;10.30;93.30;;;;;;5037653;28;20067;-60
2024/03/28 00:38:29;;;;;;;16.33;9.38;;;10.30;93.00;;;;;;5032337;28;20048;-63
2024/03/28 00:40:55;;;;;;;14.35;9.45;;;10.20;93.10;;;;;;5028135;28;20069;-60
2024/03/28 00:43:22;;;;;;;22.52;10.73;;;10.20;93.30;;;;;;5031972;28;20021;-63
2024/03/28 00:45:47;;;;;;;17.35;10.45;;;10.20;93.60;;;;;;5032150;28;20044;-61
2024/03/28 00:48:15;;;;;;;15.90;9.18;;;10.20;93.30;;;;;;5033547;28;20033;-60
2024/03/28 00:50:41;;;;;;;16.73;9.77;;;10.10;93.50;;;;;;5038988;28;20029;-61
2024/03/28 00:53:06;;;;;;;18.63;10.23;;;10.10;94.40;;;;;;5037568;28;20493;-61
2024/03/28 00:55:35;;;;;;;21.17;11.40;;;10.00;94.50;;;;;;5032146;28;20112;-60
2024/03/28 00:58:00;;;;;;;16.88;10.82;;;10.00;94.40;;;;;;5034606;28;20025;-60
2024/03/28 01:00:26;;;;;;;15.50;10.55;;;10.00;94.70;;;;;;5036177;28;20017;-61
2024/03/28 01:02:51;;;;;;;12.50;8.93;;;9.90;95.30;;;;;;5038588;28;20036;-59
2024/03/28 01:05:17;;;;;;;16.27;11.35;;;9.90;95.30;;;;;;5034483;28;20029;-60
2024/03/28 01:07:42;;;;;;;12.52;9.32;;;9.90;95.70;;;;;;5038780;28;20033;-60
2024/03/28 01:10:08;;;;;;;15.45;10.15;;;9.80;96.00;;;;;;5038329;28;20051;-52
2024/03/28 01:12:34;;;;;;;14.95;10.43;;;9.80;96.10;;;;;;5038766;28;20021;-53
2024/03/28 01:14:59;;;;;;;16.90;10.25;;;9.70;96.00;;;;;;5058143;28;20100;-55
2024/03/28 01:17:25;;;;;;;16.30;11.00;;;9.70;97.00;;;;;;5042204;28;20025;-55
2024/03/28 01:19:51;;;;;;;15.30;10.40;;;9.70;97.30;;;;;;5042541;28;20125;-54
2024/03/28 01:22:17;;;;;;;15.18;11.82;;;9.70;97.20;;;;;;5042255;28;20104;-55
2024/03/28 01:24:43;;;;;;;15.35;10.98;;;9.70;97.50;;;;;;5042466;28;20029;-54
2024/03/28 01:27:08;;;;;;;15.15;10.48;;;9.70;98.50;;;;;;5033445;28;20571;-50
2024/03/28 01:29:34;;;;;;;16.55;11.45;;;9.70;98.20;;;;;;5039755;28;20191;-53
2024/03/28 01:31:59;;;;;;;13.85;9.68;;;9.60;98.10;;;;;;5034031;28;20420;-51
2024/03/28 01:34:26;;;;;;;15.57;9.65;;;9.60;99.00;;;;;;5035472;28;20029;-53
2024/03/28 01:36:52;;;;;;;17.05;10.68;;;9.60;98.60;;;;;;5036292;28;20029;-53
2024/03/28 01:39:17;;;;;;;14.18;10.38;;;9.50;98.40;;;;;;5038470;28;20040;-53
2024/03/28 01:41:47;;;;;;;14.98;10.20;;;9.50;98.40;;;;;;5041665;28;20048;-56
2024/03/28 01:44:13;;;;;;;15.55;10.13;;;9.50;99.80;;;;;;5041736;28;20112;-54
2024/03/28 01:46:40;;;;;;;16.05;10.75;;;9.40;99.20;;;;;;5041568;28;20029;-55
2024/03/28 01:49:06;;;;;;;13.52;9.68;;;9.40;99.60;;;;;;5043433;28;20507;-54
2024/03/28 01:51:32;;;;;;;12.43;8.90;;;9.30;99.90;;;;;;5041620;28;20041;-55
2024/03/28 01:53:57;;;;;;;17.08;9.77;;;9.30;99.90;;;;;;5041388;28;20064;-55
2024/03/28 01:56:23;;;;;;;13.70;9.65;;;9.30;99.90;;;;;;5041636;28;20051;-55
2024/03/28 01:58:48;;;;;;;13.32;9.07;;;9.20;99.90;;;;;;5041106;28;20626;-55
2024/03/28 02:01:14;;;;;;;16.67;10.38;;;9.20;99.90;;;;;;5037634;28;20091;-52
2024/03/28 02:03:41;;;;;;;16.83;11.68;;;9.10;99.90;;;;;;5035532;28;20029;-56
2024/03/28 02:06:06;;;;;;;12.00;9.43;;;9.10;99.90;;;;;;5037233;28;20045;-53
2024/03/28 02:08:32;;;;;;;13.90;10.25;;;9.00;99.90;;;;;;5037132;28;20802;-55
2024/03/28 02:10:58;;;;;;;15.68;9.98;;;9.00;99.90;;;;;;5041203;28;20041;-55
2024/03/28 02:13:24;;;;;;;15.07;9.45;;;8.90;99.90;;;;;;5041237;28;20048;-55
2024/03/28 02:15:49;;;;;;;15.13;11.15;;;8.90;99.90;;;;;;5039819;28;20142;-55
2024/03/28 02:18:22;;;;;;;18.52;11.40;;;8.80;99.90;;;;;;5035216;28;20029;-52
2024/03/28 02:20:48;;;;;;;18.80;12.80;;;8.90;99.90;;;;;;5031522;28;20393;-54
2024/03/28 02:23:18;;;;;;;23.20;14.10;;;8.90;99.90;;;;;;5038837;28;20036;-54
2024/03/28 02:25:47;;;;;;;19.27;12.77;;;9.00;99.90;;;;;;5033602;28;20044;-56
2024/03/28 02:28:13;;;;;;;20.02;13.63;;;9.00;99.90;;;;;;5041336;28;20109;-55
2024/03/28 02:30:40;;;;;;;23.38;13.75;;;9.00;99.90;;;;;;5037366;28;20562;-56
2024/03/28 02:33:05;;;;;;;23.13;14.88;;;9.10;99.90;;;;;;5035240;28;20723;-53
2024/03/28 02:35:31;;;;;;;18.40;12.65;;;9.20;99.90;;;;;;5038959;28;20040;-55
2024/03/28 02:37:57;;;;;;;18.15;13.20;;;9.30;99.90;;;;;;5036568;28;20130;-54
2024/03/28 02:40:24;;;;;;;16.00;10.82;;;9.30;99.90;;;;;;5035585;28;20029;-52
2024/03/28 02:42:50;;;;;;;16.45;11.57;;;9.30;99.90;;;;;;5038628;28;20021;-55
2024/03/28 02:45:15;;;;;;;17.13;12.25;;;9.30;99.90;;;;;;5037738;28;20504;-55
2024/03/28 02:47:40;;;;;;;16.50;11.32;;;9.30;99.90;;;;;;5036331;28;20029;-56
2024/03/28 02:50:06;;;;;;;31.55;12.23;;;9.30;99.90;;;;;;5036570;28;20025;-55
2024/03/28 02:52:32;;;;;;;21.30;12.35;;;9.30;99.90;;;;;;5036768;28;20516;-55
2024/03/28 02:54:57;;;;;;;19.45;12.98;;;9.40;99.90;;;;;;5034274;28;20049;-54
2024/03/28 02:57:25;;;;;;;20.65;12.07;;;9.40;99.90;;;;;;5036696;28;20107;-53
2024/03/28 02:59:51;;;;;;;15.98;11.95;;;9.40;99.90;;;;;;5032323;28;20075;-55
2024/03/28 03:02:16;;;;;;;19.52;12.40;;;9.30;99.90;;;;;;5033865;28;20024;-53
2024/03/28 03:04:42;;;;;;;20.17;12.02;;;9.30;99.90;;;;;;5035167;28;20622;-55
2024/03/28 03:07:07;;;;;;;17.45;12.90;;;9.30;99.90;;;;;;5036131;28;20060;-55
2024/03/28 03:09:33;;;;;;;15.57;11.73;;;9.20;99.90;;;;;;5037689;28;20561;-54
2024/03/28 03:11:59;;;;;;;16.95;11.38;;;9.20;99.90;;;;;;5037100;28;20032;-55
2024/03/28 03:14:24;;;;;;;15.32;10.73;;;9.20;99.90;;;;;;5036010;28;20035;-55
2024/03/28 03:16:50;;;;;;;19.75;12.27;;;9.10;99.90;;;;;;5033835;28;20029;-56
2024/03/28 03:19:18;;;;;;;17.40;10.60;;;9.10;99.90;;;;;;5034222;28;20493;-54
2024/03/28 03:21:46;;;;;;;20.27;13.63;;;9.10;99.90;;;;;;5035922;28;20017;-52
2024/03/28 03:24:13;;;;;;;15.68;11.23;;;9.00;99.90;;;;;;5039853;28;20021;-55
2024/03/28 03:26:38;;;;;;;15.40;12.20;;;9.00;99.90;;;;;;5035537;28;20633;-52
2024/03/28 03:34:35;;;;;;;21.02;12.18;;;9.00;99.90;;;;;;5032577;28;20036;-54
2024/03/28 03:37:18;;;;;;;17.55;10.85;;;9.00;99.90;;;;;;5050744;28;20055;-55
2024/03/28 03:39:44;;;;;;;15.40;11.32;;;9.00;99.90;;;;;;5031361;28;20021;-54
2024/03/28 03:42:10;;;;;;;23.98;12.85;;;9.00;99.90;;;;;;5034664;28;20087;-54
2024/03/28 03:44:36;;;;;;;21.15;11.40;;;9.00;99.90;;;;;;5041667;28;20100;-55
2024/03/28 03:47:01;;;;;;;15.05;10.35;;;9.00;99.90;;;;;;5037167;28;20124;-55
2024/03/28 03:49:27;;;;;;;16.83;11.93;;;9.00;99.90;;;;;;5034376;28;20033;-54
2024/03/28 03:51:52;;;;;;;20.77;12.43;;;9.00;99.90;;;;;;5031390;28;20490;-54
2024/03/28 03:54:18;;;;;;;14.48;10.50;;;9.10;99.90;;;;;;5034985;28;20075;-55
2024/03/28 03:56:43;;;;;;;16.20;10.80;;;9.10;99.90;;;;;;5032187;28;20362;-55
2024/03/28 03:59:09;;;;;;;18.00;11.45;;;9.10;99.90;;;;;;5037286;28;20033;-55
2024/03/28 04:01:34;;;;;;;14.95;11.32;;;9.10;99.90;;;;;;5039813;28;20029;-56
2024/03/28 04:04:00;;;;;;;26.92;12.48;;;9.10;99.90;;;;;;5035335;28;20471;-55
2024/03/28 04:06:25;;;;;;;16.75;11.13;;;9.10;99.90;;;;;;5034659;28;20036;-52
2024/03/28 04:08:51;;;;;;;15.18;10.27;;;9.20;99.90;;;;;;5037626;28;20512;-51
2024/03/28 04:11:16;;;;;;;13.18;9.50;;;9.20;99.90;;;;;;5037035;28;20064;-55
2024/03/28 04:13:42;;;;;;;16.27;11.48;;;9.20;99.90;;;;;;5030890;28;20092;-55
2024/03/28 04:16:07;;;;;;;16.77;11.57;;;9.20;99.90;;;;;;5039185;28;20516;-51
2024/03/28 04:18:33;;;;;;;16.60;9.95;;;9.30;99.90;;;;;;5034915;28;20033;-55
2024/03/28 04:20:59;;;;;;;15.30;10.25;;;9.20;99.90;;;;;;5031259;28;20034;-53
2024/03/28 04:23:24;;;;;;;17.27;11.50;;;9.20;99.90;;;;;;5038945;28;20054;-53
2024/03/28 04:25:57;;;;;;;15.75;11.68;;;9.20;99.90;;;;;;5039084;28;20390;-54
2024/03/28 04:28:23;;;;;;;18.15;10.73;;;9.20;99.90;;;;;;5039146;28;20036;-54
2024/03/28 04:30:49;;;;;;;17.83;10.68;;;9.10;99.90;;;;;;5039008;28;20028;-53
2024/03/28 04:33:14;;;;;;;17.60;12.07;;;9.10;99.90;;;;;;5040695;28;20029;-56
2024/03/28 04:35:42;;;;;;;17.48;10.95;;;9.10;99.90;;;;;;5038941;28;20036;-53
2024/03/28 04:38:08;;;;;;;18.38;12.25;;;9.10;99.90;;;;;;5038332;28;21031;-54
2024/03/28 04:40:33;;;;;;;16.60;9.90;;;9.10;99.90;;;;;;5025453;28;20121;-52
2024/03/28 04:42:59;;;;;;;16.85;11.93;;;9.20;99.90;;;;;;5032483;28;20036;-54
2024/03/28 04:45:24;;;;;;;16.20;11.40;;;9.20;99.90;;;;;;5031914;28;20108;-54
2024/03/28 04:47:53;;;;;;;16.02;10.50;;;9.20;99.90;;;;;;5039030;28;20086;-55
2024/03/28 04:50:19;;;;;;;17.13;10.95;;;9.20;99.90;;;;;;5037912;28;20047;-55
2024/03/28 04:52:45;;;;;;;18.65;12.52;;;9.30;99.90;;;;;;5039655;28;20029;-56
2024/03/28 04:55:11;;;;;;;24.88;13.15;;;9.30;99.90;;;;;;5035757;28;20040;-53
2024/03/28 04:57:37;;;;;;;17.27;12.60;;;9.40;99.90;;;;;;5038019;28;20071;-55
2024/03/28 05:00:06;;;;;;;21.65;13.18;;;9.50;99.90;;;;;;5038542;28;20100;-53
2024/03/28 05:02:33;;;;;;;20.48;14.48;;;9.60;99.90;;;;;;5038764;28;20087;-53
2024/03/28 05:04:58;;;;;;;20.70;13.88;;;9.60;99.90;;;;;;5043204;28;20041;-56
2024/03/28 05:07:24;;;;;;;19.50;12.27;;;9.60;99.90;;;;;;5035307;28;20158;-55
2024/03/28 05:09:50;;;;;;;17.05;13.18;;;9.70;99.90;;;;;;5041169;28;20076;-54
2024/03/28 05:12:15;;;;;;;20.95;14.35;;;9.70;99.90;;;;;;5038261;28;20021;-55
2024/03/28 05:14:41;;;;;;;23.45;13.70;;;9.70;99.90;;;;;;5034526;28;20040;-54
2024/03/28 05:17:08;;;;;;;21.33;14.48;;;9.70;99.90;;;;;;5038525;28;20049;-51
2024/03/28 05:19:34;;;;;;;20.90;13.52;;;9.80;99.90;;;;;;5040487;28;20385;-55
2024/03/28 05:22:00;;;;;;;22.60;14.55;;;9.80;99.90;;;;;;5036083;28;20025;-55
2024/03/28 05:24:25;;;;;;;22.00;15.70;;;9.80;99.90;;;;;;5041391;28;20120;-57
2024/03/28 05:26:51;;;;;;;25.98;16.35;;;9.90;99.90;;;;;;5038295;28;20112;-55
2024/03/28 05:29:16;;;;;;;22.15;16.42;;;10.00;99.90;;;;;;5036615;28;20117;-55
2024/03/28 05:31:42;;;;;;;26.80;18.60;;;10.00;99.90;;;;;;5035008;28;20052;-55
2024/03/28 05:34:08;;;;;;;30.95;19.80;;;10.10;99.90;;;;;;5041086;28;20099;-56
2024/03/28 05:36:36;;;;;;;30.58;21.10;;;10.10;99.90;;;;;;5039003;28;20021;-56
2024/03/28 05:39:04;;;;;;;25.73;18.40;;;10.10;99.90;;;;;;5033687;28;20021;-55
2024/03/28 05:41:30;;;;;;;31.85;20.50;;;10.10;99.90;;;;;;5038427;28;20032;-56
2024/03/28 05:43:55;;;;;;;30.08;20.42;;;10.10;99.90;;;;;;5039404;28;20041;-55
2024/03/28 05:46:20;;;;;;;28.80;19.83;;;10.10;99.90;;;;;;5037678;28;20040;-58
2024/03/28 05:48:46;;;;;;;31.15;20.05;;;10.10;99.90;;;;;;5037953;28;20044;-55
2024/03/28 05:51:11;;;;;;;32.03;20.50;;;10.00;99.90;;;;;;5033642;28;20215;-56
2024/03/28 05:53:37;;;;;;;34.40;20.98;;;10.00;99.90;;;;;;5039262;28;20056;-54
2024/03/28 05:56:03;;;;;;;28.67;19.23;;;10.00;99.90;;;;;;5039448;28;20043;-54
2024/03/28 05:58:29;;;;;;;35.08;21.50;;;10.00;99.90;;;;;;5040064;28;20043;-56
2024/03/28 06:00:54;;;;;;;33.40;21.55;;;10.00;99.90;;;;;;5039547;28;20033;-55
2024/03/28 06:03:20;;;;;;;35.85;23.10;;;10.00;99.90;;;;;;5035967;28;20040;-56
2024/03/28 06:05:45;;;;;;;34.33;20.95;;;9.90;99.90;;;;;;5036065;28;20179;-55
2024/03/28 06:08:10;;;;;;;31.83;21.38;;;9.90;99.90;;;;;;5037375;28;20099;-56
2024/03/28 06:10:36;;;;;;;32.38;22.55;;;9.90;99.90;;;;;;5041428;28;20543;-58
2024/03/28 06:13:02;;;;;;;29.48;20.38;;;9.90;99.90;;;;;;5037992;28;20024;-57
2024/03/28 06:15:27;;;;;;;29.55;19.77;;;9.90;99.90;;;;;;5038618;28;20068;-53
2024/03/28 06:17:52;;;;;;;33.15;21.88;;;9.90;99.90;;;;;;5034886;28;20113;-54
2024/03/28 06:20:18;;;;;;;32.42;21.98;;;9.90;99.90;;;;;;5035602;28;20536;-52
2024/03/28 06:22:43;;;;;;;38.15;24.00;;;9.90;99.90;;;;;;5039610;28;20041;-56
2024/03/28 06:25:09;;;;;;;36.67;23.55;;;9.90;99.90;;;;;;5036738;28;20033;-56
2024/03/28 06:27:35;;;;;;;31.80;20.20;;;9.90;99.90;;;;;;5039014;28;20025;-54
2024/03/28 06:30:00;;;;;;;34.65;23.55;;;9.90;99.90;;;;;;5038225;28;20033;-56
2024/03/28 06:32:26;;;;;;;39.15;25.63;;;9.90;99.90;;;;;;5039992;28;20056;-55
2024/03/28 06:34:52;;;;;;;34.95;22.63;;;9.90;99.90;;;;;;5037678;28;20220;-56
2024/03/28 06:37:21;;;;;;;34.33;22.08;;;9.90;99.90;;;;;;5033788;28;20066;-56
2024/03/28 06:39:47;;;;;;;37.22;23.50;;;9.90;99.90;;;;;;5032089;28;20380;-55
2024/03/28 06:42:13;;;;;;;35.00;23.13;;;9.90;99.90;;;;;;5031226;28;20492;-55
2024/03/28 06:44:47;;;;;;;33.15;21.42;;;9.90;99.90;;;;;;5036356;28;20028;-56
2024/03/28 06:47:12;;;;;;;34.05;20.75;;;9.80;99.90;;;;;;5038647;28;20040;-55
2024/03/28 06:49:38;;;;;;;32.35;21.45;;;9.90;99.90;;;;;;5034541;28;20013;-56
2024/03/28 06:52:05;;;;;;;30.83;19.65;;;9.80;99.90;;;;;;5035447;28;20076;-58
2024/03/28 06:54:30;;;;;;;39.67;21.65;;;9.90;99.90;;;;;;5035346;28;20373;-55
2024/03/28 06:56:56;;;;;;;35.83;21.60;;;9.90;99.90;;;;;;5034659;28;20033;-56
2024/03/28 06:59:21;;;;;;;31.65;20.17;;;9.90;99.90;;;;;;5033243;28;20136;-55
2024/03/28 07:01:46;;;;;;;27.70;18.83;;;9.90;99.90;;;;;;5037518;28;20025;-54
2024/03/28 07:04:12;;;;;;;29.67;18.42;;;9.90;99.90;;;;;;5037554;28;20023;-55
2024/03/28 07:06:37;;;;;;;25.85;17.45;;;9.90;99.90;;;;;;5029322;28;20525;-57
2024/03/28 07:09:03;;;;;;;28.77;19.58;;;9.90;99.90;;;;;;5030900;28;20151;-56
2024/03/28 07:11:29;;;;;;;28.88;19.63;;;9.90;99.90;;;;;;5035761;28;20029;-55
2024/03/28 07:13:55;;;;;;;25.88;17.10;;;9.90;99.90;;;;;;5030627;28;20017;-44
2024/03/28 07:16:20;;;;;;;21.40;13.77;;;9.90;99.90;;;;;;5038477;28;20104;-57
2024/03/28 07:18:46;;;;;;;16.45;11.80;;;9.90;99.90;;;;;;5033462;28;20444;-48
2024/03/28 07:21:11;;;;;;;15.48;10.60;;;9.90;99.90;;;;;;5034775;28;20048;-51
2024/03/28 07:23:41;;;;;;;11.52;7.95;;;9.90;99.90;;;;;;5031176;28;20029;-51
2024/03/28 07:26:07;;;;;;;8.07;5.85;;;9.90;99.90;;;;;;5032207;28;20043;-51
2024/03/28 07:28:32;;;;;;;8.10;4.97;;;9.90;99.90;;;;;;5032903;28;20108;-49
2024/03/28 07:30:59;;;;;;;5.28;3.65;;;10.00;99.90;;;;;;5037936;28;20116;-47
2024/03/28 07:33:24;;;;;;;3.58;2.65;;;10.00;99.90;;;;;;5030456;28;20301;-47
2024/03/28 07:35:50;;;;;;;3.42;2.20;;;10.00;99.90;;;;;;5033292;28;20516;-52
2024/03/28 07:38:17;;;;;;;3.95;2.42;;;10.00;99.40;;;;;;5033741;28;20021;-51
2024/03/28 07:40:49;;;;;;;3.05;2.35;;;10.00;99.00;;;;;;5026968;28;20664;-48
2024/03/28 07:43:16;;;;;;;2.83;2.13;;;10.00;98.70;;;;;;5030915;28;20029;-49
2024/03/28 07:45:42;;;;;;;4.10;2.47;;;9.90;98.80;;;;;;5033526;28;20512;-49
2024/03/28 07:48:10;;;;;;;3.70;2.40;;;9.90;98.60;;;;;;5035629;28;20033;-48
2024/03/28 07:50:36;;;;;;;2.90;2.00;;;9.90;98.60;;;;;;5036700;28;20025;-47
2024/03/28 07:53:03;;;;;;;5.88;5.03;;;9.90;98.40;;;;;;5034930;28;20167;-49
2024/03/28 07:55:28;;;;;;;3.92;3.00;;;9.90;97.80;;;;;;5033178;28;20028;-49
2024/03/28 07:57:54;;;;;;;2.22;2.00;;;9.90;97.50;;;;;;5035403;28;20025;-46
2024/03/28 08:00:21;;;;;;;2.60;2.40;;;9.90;97.00;;;;;;5037555;28;20135;-46
2024/03/28 08:02:48;;;;;;;2.97;2.63;;;9.80;96.20;;;;;;5036149;28;20032;-49
2024/03/28 08:05:14;;;;;;;3.15;2.13;;;9.80;96.00;;;;;;5037340;28;20612;-50
2024/03/28 08:07:39;;;;;;;3.30;2.45;;;9.80;95.70;;;;;;5036226;28;20029;-52
2024/03/28 08:10:09;;;;;;;3.00;2.30;;;9.90;95.40;;;;;;5037405;28;20045;-50
2024/03/28 08:12:34;;;;;;;6.45;2.75;;;9.90;95.00;;;;;;5033629;28;20029;-48
2024/03/28 08:15:00;;;;;;;2.45;2.22;;;10.00;94.90;;;;;;5036727;28;20638;-47
2024/03/28 08:17:25;;;;;;;2.25;2.05;;;10.00;94.90;;;;;;5031459;28;20025;-48
2024/03/28 08:19:50;;;;;;;3.63;2.20;;;9.90;94.70;;;;;;5035050;28;20509;-48
2024/03/28 08:22:16;;;;;;;3.15;2.35;;;9.90;94.80;;;;;;5036526;28;20525;-49
2024/03/28 08:24:42;;;;;;;3.30;2.38;;;9.90;94.80;;;;;;5041560;28;20055;-47
2024/03/28 08:27:07;;;;;;;2.67;2.40;;;9.80;94.60;;;;;;5035939;28;20036;-48
2024/03/28 08:29:33;;;;;;;3.40;2.22;;;9.80;94.60;;;;;;5040743;28;20091;-48
2024/03/28 08:31:58;;;;;;;1.73;1.40;;;9.70;94.70;;;;;;5039662;28;20079;-50
2024/03/28 08:34:25;;;;;;;5.32;2.22;;;9.70;94.50;;;;;;5040680;28;20263;-48
2024/03/28 08:36:51;;;;;;;2.17;1.85;;;9.80;94.70;;;;;;5036921;28;20025;-50
2024/03/28 08:39:22;;;;;;;2.28;1.77;;;9.80;94.40;;;;;;5035152;28;20078;-52
2024/03/28 08:41:48;;;;;;;2.47;2.13;;;9.80;94.00;;;;;;5038847;28;20021;-51
2024/03/28 08:44:14;;;;;;;2.08;1.63;;;9.80;93.70;;;;;;5042096;28;20083;-53
2024/03/28 08:46:40;;;;;;;2.53;2.25;;;9.80;93.70;;;;;;5039945;28;20041;-50
2024/03/28 08:49:08;;;;;;;2.72;1.20;;;9.90;93.80;;;;;;5041274;28;20025;-48
2024/03/28 08:51:33;;;;;;;1.52;1.38;;;9.90;93.80;;;;;;5040789;28;20017;-57
2024/03/28 08:53:59;;;;;;;2.33;1.52;;;9.80;93.90;;;;;;5040819;28;20025;-48
2024/03/28 08:56:24;;;;;;;2.22;1.70;;;9.80;93.90;;;;;;5036168;28;20460;-51
2024/03/28 08:58:50;;;;;;;1.85;1.55;;;9.70;94.00;;;;;;5039386;28;20032;-48
2024/03/28 09:01:15;;;;;;;1.85;1.40;;;9.70;94.00;;;;;;5040992;28;20075;-52
2024/03/28 09:03:42;;;;;;;1.35;1.20;;;9.70;94.20;;;;;;5039706;28;20029;-49
2024/03/28 09:06:09;;;;;;;2.00;1.25;;;9.60;94.50;;;;;;5039017;28;20029;-52
2024/03/28 09:08:35;;;;;;;1.30;0.95;;;9.70;94.10;;;;;;5040549;28;20033;-49
2024/03/28 09:11:01;;;;;;;1.15;0.98;;;9.80;94.20;;;;;;5036652;28;20029;-49
2024/03/28 09:13:26;;;;;;;1.08;0.98;;;9.80;94.10;;;;;;5037101;28;20086;-50
2024/03/28 09:15:52;;;;;;;1.05;0.95;;;9.80;93.60;;;;;;5039454;28;20101;-53
2024/03/28 09:18:17;;;;;;;0.75;0.70;;;9.80;93.30;;;;;;5038125;28;20138;-50
2024/03/28 09:20:45;;;;;;;1.35;1.02;;;9.80;93.00;;;;;;5036973;28;20021;-50
2024/03/28 09:23:10;;;;;;;0.82;0.82;;;9.80;92.60;;;;;;5040491;28;20494;-49
2024/03/28 09:25:36;;;;;;;0.88;0.80;;;9.80;92.70;;;;;;5038701;28;20025;-52
2024/03/28 09:28:02;;;;;;;1.90;1.10;;;9.80;92.50;;;;;;5039885;28;20037;-52
2024/03/28 09:30:27;;;;;;;1.38;0.80;;;9.80;92.30;;;;;;5038889;28;20021;-51
2024/03/28 09:32:54;;;;;;;0.88;0.88;;;9.90;92.30;;;;;;5040513;28;20025;-54
2024/03/28 09:35:20;;;;;;;2.10;1.10;;;9.90;91.90;;;;;;5036603;28;20027;-48
2024/03/28 09:37:45;;;;;;;1.30;0.77;;;9.90;91.30;;;;;;5038674;28;20519;-48
2024/03/28 09:40:13;;;;;;;0.68;0.60;;;10.00;91.30;;;;;;5044711;28;20056;-50
2024/03/28 09:42:43;;;;;;;0.82;0.70;;;10.00;91.10;;;;;;5036821;28;20018;-52
2024/03/28 09:45:10;;;;;;;1.13;0.70;;;10.20;90.80;;;;;;5038317;28;20101;-51
2024/03/28 09:47:36;;;;;;;0.68;0.65;;;10.30;90.40;;;;;;5035301;28;20087;-50
2024/03/28 09:50:07;;;;;;;2.33;1.38;;;10.30;90.20;;;;;;5038400;28;20100;-52
2024/03/28 09:52:33;;;;;;;1.52;0.90;;;10.40;88.60;;;;;;5038731;28;20013;-51
2024/03/28 09:54:59;;;;;;;3.40;1.30;;;10.60;88.00;;;;;;5039189;28;20025;-50
2024/03/28 09:57:25;;;;;;;1.77;0.80;;;10.70;86.60;;;;;;5036196;28;20033;-51
2024/03/28 09:59:50;;;;;;;2.00;1.08;;;10.90;85.70;;;;;;5038850;28;20022;-52
2024/03/28 10:02:19;;;;;;;4.55;1.08;;;11.20;85.40;;;;;;5039349;28;20029;-48
2024/03/28 10:04:55;;;;;;;0.73;0.70;;;11.50;84.00;;;;;;5039901;28;20096;-47
2024/03/28 10:07:22;;;;;;;0.57;0.50;;;11.70;81.50;;;;;;5037790;28;20028;-48
2024/03/28 10:09:49;;;;;;;0.50;0.50;;;11.70;80.60;;;;;;5034064;28;20091;-49
2024/03/28 10:12:15;;;;;;;0.50;0.50;;;11.90;81.00;;;;;;5038057;28;20013;-49
2024/03/28 10:14:51;;;;;;;0.82;0.65;;;12.10;79.90;;;;;;5038899;28;20028;-46
2024/03/28 10:17:17;;;;;;;0.70;0.60;;;12.30;79.30;;;;;;5037887;28;20029;-49
2024/03/28 10:19:43;;;;;;;0.55;0.50;;;12.50;77.10;;;;;;5041660;28;20075;-52
2024/03/28 10:22:12;;;;;;;2.00;0.50;;;12.70;77.90;;;;;;5043277;28;20519;-59
2024/03/28 10:24:46;;;;;;;0.88;0.63;;;13.00;77.80;;;;;;5042094;28;20028;-59
2024/03/28 10:27:13;;;;;;;0.22;0.22;;;13.20;75.20;;;;;;5039526;28;20029;-59
2024/03/28 10:29:47;;;;;;;0.52;0.40;;;13.30;75.10;;;;;;5043084;28;20780;-59
2024/03/28 10:32:13;;;;;;;1.00;0.60;;;13.40;74.30;;;;;;5039937;28;20031;-59
2024/03/28 10:34:45;;;;;;;0.57;0.43;;;13.40;71.60;;;;;;5039402;28;20639;-59
2024/03/28 10:37:11;;;;;;;0.95;0.25;;;13.50;70.30;;;;;;5041813;28;20100;-59
2024/03/28 10:39:36;;;;;;;0.30;0.28;;;13.60;70.90;;;;;;5036579;28;20056;-58
2024/03/28 10:42:05;;;;;;;0.68;0.40;;;13.70;70.90;;;;;;5041707;28;20155;-57
2024/03/28 10:44:32;;;;;;;0.52;0.38;;;13.80;69.50;;;;;;5041701;28;20013;-57
2024/03/28 10:46:58;;;;;;;0.35;0.30;;;13.90;68.70;;;;;;5040361;28;20044;-58
2024/03/28 10:49:42;;;;;;;3.17;0.50;;;13.80;68.80;;;;;;5041419;28;20087;-58
2024/03/28 10:52:15;;;;;;;1.38;0.57;;;14.00;66.50;;;;;;5041055;28;20512;-58
2024/03/28 10:54:45;;;;;;;0.52;0.50;;;14.00;64.50;;;;;;5041128;28;20013;-58
2024/03/28 10:57:13;;;;;;;0.93;0.30;;;14.00;65.70;;;;;;5041037;28;20059;-58
2024/03/28 10:59:40;;;;;;;0.30;0.30;;;14.10;65.90;;;;;;5039547;28;20112;-57
2024/03/28 11:02:06;;;;;;;1.17;0.28;;;14.20;65.00;;;;;;5040856;28;20021;-58
2024/03/28 11:04:33;;;;;;;0.40;0.40;;;14.20;64.70;;;;;;5040909;28;20078;-58
2024/03/28 11:06:59;;;;;;;0.32;0.25;;;14.40;64.60;;;;;;5040594;28;20025;-58
2024/03/28 11:09:28;;;;;;;0.65;0.47;;;14.60;65.10;;;;;;5040890;28;20040;-57
2024/03/28 11:11:56;;;;;;;0.68;0.40;;;14.70;63.30;;;;;;5042604;28;20096;-58
2024/03/28 11:14:22;;;;;;;1.48;0.52;;;14.70;62.40;;;;;;5041113;28;20028;-58
2024/03/28 11:16:48;;;;;;;0.65;0.40;;;14.70;62.30;;;;;;5040927;28;20025;-57
2024/03/28 11:19:16;;;;;;;1.85;0.52;;;14.80;62.00;;;;;;5040699;28;20028;-58
2024/03/28 11:21:42;;;;;;;0.40;0.40;;;14.90;60.60;;;;;;5040873;28;20032;-58
2024/03/28 11:24:22;;;;;;;0.35;0.20;;;14.90;59.50;;;;;;5033773;28;20029;-58
2024/03/28 11:26:54;;;;;;;3.22;0.75;;;14.80;58.50;;;;;;5038092;28;20467;-58
2024/03/28 11:29:24;;;;;;;1.63;0.30;;;14.60;56.60;;;;;;5036979;28;20114;-58
2024/03/28 11:31:59;;;;;;;2.00;0.40;;;14.50;57.80;;;;;;5038033;28;20048;-58
2024/03/28 11:34:29;;;;;;;0.43;0.30;;;14.50;58.10;;;;;;5035686;28;20063;-58
2024/03/28 11:36:57;;;;;;;0.52;0.50;;;14.50;58.10;;;;;;5035515;28;20059;-57
2024/03/28 11:39:25;;;;;;;0.75;0.52;;;14.40;57.90;;;;;;5024935;28;20025;-58
2024/03/28 11:41:51;;;;;;;0.45;0.25;;;14.40;58.20;;;;;;5036175;28;20191;-58
2024/03/28 11:44:22;;;;;;;0.73;0.40;;;14.40;57.80;;;;;;5029455;28;20025;-58
2024/03/28 11:46:58;;;;;;;0.50;0.30;;;14.20;56.10;;;;;;5037733;28;20603;-58
2024/03/28 11:49:24;;;;;;;1.17;0.50;;;14.10;56.50;;;;;;5038360;28;20500;-58
2024/03/28 11:51:50;;;;;;;0.45;0.40;;;14.10;57.10;;;;;;5037201;28;20036;-59
2024/03/28 11:54:18;;;;;;;0.73;0.25;;;14.10;56.60;;;;;;5037493;28;20029;-58
2024/03/28 11:56:44;;;;;;;0.90;0.38;;;14.00;55.70;;;;;;5037391;28;20119;-58
2024/03/28 11:59:20;;;;;;;0.88;0.30;;;14.10;56.90;;;;;;5037288;28;20131;-58
2024/03/28 12:01:49;;;;;;;3.05;0.63;;;14.10;56.10;;;;;;5036225;28;20032;-57
2024/03/28 12:04:22;;;;;;;1.15;0.73;;;14.10;54.70;;;;;;5033148;28;20036;-58
2024/03/28 12:06:48;;;;;;;0.70;0.65;;;14.10;54.40;;;;;;5038309;28;20057;-58
2024/03/28 12:09:13;;;;;;;0.93;0.85;;;14.20;54.30;;;;;;5039328;28;20076;-58
2024/03/28 12:11:39;;;;;;;0.95;0.80;;;14.20;53.50;;;;;;5040234;28;20343;-57
2024/03/28 12:14:04;;;;;;;1.48;1.00;;;14.40;53.70;;;;;;5033175;28;20024;-57
2024/03/28 12:16:30;;;;;;;2.22;1.05;;;14.60;53.80;;;;;;5037500;28;20520;-58
2024/03/28 12:19:03;;;;;;;3.50;1.10;;;14.70;52.50;;;;;;5036292;28;20045;-59
2024/03/28 12:21:29;;;;;;;1.15;0.88;;;14.70;52.20;;;;;;5037675;28;20033;-58
2024/03/28 12:23:55;;;;;;;2.05;1.00;;;14.70;52.40;;;;;;5038114;28;20101;-58
2024/03/28 12:26:21;;;;;;;1.50;1.00;;;14.80;51.20;;;;;;5034035;28;20061;-58
2024/03/28 12:28:47;;;;;;;1.42;1.20;;;14.80;50.50;;;;;;5038164;28;20089;-58
2024/03/28 12:31:23;;;;;;;2.72;1.40;;;14.80;49.60;;;;;;5038249;28;20029;-58
2024/03/28 12:33:49;;;;;;;1.13;1.00;;;14.90;48.90;;;;;;5033787;28;20048;-58
2024/03/28 12:36:17;;;;;;;1.48;1.27;;;14.90;48.60;;;;;;5037507;28;20071;-57
2024/03/28 12:38:47;;;;;;;1.50;1.40;;;15.10;49.00;;;;;;5036362;28;20025;-58
2024/03/28 12:41:23;;;;;;;1.45;1.15;;;15.20;49.20;;;;;;5031231;28;20067;-57
2024/03/28 12:43:57;;;;;;;1.00;0.90;;;15.40;48.40;;;;;;5034989;28;20033;-58
2024/03/28 12:46:23;;;;;;;1.27;0.75;;;15.40;48.40;;;;;;5035494;28;20039;-58